createdAt,value
2022-11-13T00:01:10.349Z,10.00
2022-11-13T00:03:37.141Z,10.00
2022-11-13T00:06:04.581Z,10.00
2022-11-13T00:08:31.558Z,9.90
2022-11-13T00:11:10.059Z,9.80
2022-11-13T00:13:36.920Z,9.80
2022-11-13T00:16:07.010Z,9.90
2022-11-13T00:18:37.597Z,9.90
2022-11-13T00:21:13.557Z,9.90
2022-11-13T00:23:40.561Z,9.80
2022-11-13T00:26:09.563Z,9.90
2022-11-13T00:28:36.415Z,9.90
2022-11-13T00:31:05.201Z,9.90
2022-11-13T00:34:01.996Z,9.90
2022-11-13T00:36:25.904Z,9.90
2022-11-13T00:38:53.998Z,9.90
2022-11-13T00:41:21.594Z,9.90
2022-11-13T00:43:48.581Z,9.90
2022-11-13T00:46:15.390Z,10.00
2022-11-13T00:48:42.232Z,10.00
2022-11-13T00:51:09.015Z,9.90
2022-11-13T00:53:35.833Z,9.90
2022-11-13T00:56:02.780Z,9.90
2022-11-13T00:58:30.289Z,9.90
2022-11-13T01:01:14.035Z,9.90
2022-11-13T01:03:41.179Z,9.90
2022-11-13T01:06:13.332Z,9.80
2022-11-13T01:08:40.589Z,9.90
2022-11-13T01:11:13.598Z,9.80
2022-11-13T01:13:42.250Z,9.80
2022-11-13T01:16:11.166Z,9.70
2022-11-13T01:18:38.278Z,9.70
2022-11-13T01:21:11.387Z,9.90
2022-11-13T01:23:38.358Z,9.90
2022-11-13T01:26:08.074Z,9.90
2022-11-13T01:28:34.964Z,9.90
2022-11-13T01:31:06.307Z,9.80
2022-11-13T01:33:33.195Z,9.70
2022-11-13T01:36:05.388Z,9.70
2022-11-13T01:38:36.246Z,9.60
2022-11-13T01:41:05.027Z,9.70
2022-11-13T01:43:38.917Z,9.70
2022-11-13T01:46:12.152Z,9.70
2022-11-13T01:48:43.488Z,9.60
2022-11-13T01:51:14.461Z,9.70
2022-11-13T01:53:43.522Z,9.70
2022-11-13T01:56:11.139Z,9.70
2022-11-13T01:58:38.550Z,9.70
2022-11-13T02:01:05.429Z,9.70
2022-11-13T02:03:32.250Z,9.70
2022-11-13T02:05:59.035Z,9.60
2022-11-13T02:08:26.339Z,9.60
2022-11-13T02:10:53.484Z,9.70
2022-11-13T02:13:21.351Z,9.70
2022-11-13T02:15:50.235Z,9.70
2022-11-13T02:18:18.218Z,9.70
2022-11-13T02:21:10.106Z,9.70
2022-11-13T02:23:56.527Z,9.70
2022-11-13T02:26:23.935Z,9.70
2022-11-13T02:28:50.773Z,9.70
2022-11-13T02:31:17.788Z,9.70
2022-11-13T02:33:44.569Z,9.70
2022-11-13T02:36:12.894Z,9.60
2022-11-13T02:38:41.213Z,9.60
2022-11-13T02:41:08.062Z,9.60
2022-11-13T02:43:34.865Z,9.70
2022-11-13T02:46:01.627Z,9.70
2022-11-13T02:48:28.689Z,9.70
2022-11-13T02:50:55.648Z,9.70
2022-11-13T02:53:22.427Z,9.70
2022-11-13T02:55:49.197Z,9.70
2022-11-13T02:58:15.945Z,9.70
2022-11-13T03:00:42.764Z,9.70
2022-11-13T03:03:09.587Z,9.70
2022-11-13T03:05:36.383Z,9.70
2022-11-13T03:08:03.466Z,9.70
2022-11-13T03:10:30.309Z,9.80
2022-11-13T03:12:58.813Z,9.90
2022-11-13T03:15:25.575Z,9.70
2022-11-13T03:17:52.362Z,9.80
2022-11-13T03:20:19.286Z,9.80
2022-11-13T03:22:46.011Z,9.80
2022-11-13T03:25:12.821Z,9.70
2022-11-13T03:27:39.576Z,9.70
2022-11-13T03:30:07.102Z,9.80
2022-11-13T03:32:33.889Z,9.70
2022-11-13T03:35:00.615Z,9.70
2022-11-13T03:37:27.355Z,9.60
2022-11-13T03:39:54.125Z,9.60
2022-11-13T03:42:21.032Z,9.70
2022-11-13T03:44:47.781Z,9.70
2022-11-13T03:47:16.156Z,9.70
2022-11-13T03:49:42.875Z,9.70
2022-11-13T03:52:09.721Z,9.70
2022-11-13T03:54:36.611Z,9.80
2022-11-13T03:57:03.695Z,9.80
2022-11-13T03:59:30.465Z,9.80
2022-11-13T04:01:57.310Z,9.70
2022-11-13T04:04:24.261Z,9.70
2022-11-13T04:06:51.033Z,9.60
2022-11-13T04:09:17.912Z,9.60
2022-11-13T04:11:44.659Z,9.60
2022-11-13T04:14:11.410Z,9.60
2022-11-13T04:16:38.229Z,9.60
2022-11-13T04:19:05.169Z,9.60
2022-11-13T04:21:31.950Z,9.70
2022-11-13T04:23:58.769Z,9.60
2022-11-13T04:26:25.509Z,9.70
2022-11-13T04:28:52.227Z,9.70
2022-11-13T04:31:19.022Z,9.70
2022-11-13T04:33:45.780Z,9.70
2022-11-13T04:36:12.630Z,9.70
2022-11-13T04:38:39.484Z,9.70
2022-11-13T04:41:24.667Z,9.70
2022-11-13T04:43:51.506Z,9.70
2022-11-13T04:46:18.196Z,9.70
2022-11-13T04:48:44.980Z,9.70
2022-11-13T04:51:12.885Z,9.70
2022-11-13T04:53:39.634Z,9.70
2022-11-13T04:56:06.665Z,9.70
2022-11-13T04:58:33.439Z,9.70
2022-11-13T05:01:00.233Z,9.70
2022-11-13T05:03:27.086Z,9.80
2022-11-13T05:05:53.867Z,9.80
2022-11-13T05:08:20.619Z,9.70
2022-11-13T05:10:47.397Z,9.70
2022-11-13T05:13:14.323Z,9.70
2022-11-13T05:15:41.043Z,9.60
2022-11-13T05:18:07.853Z,9.70
2022-11-13T05:20:34.731Z,9.70
2022-11-13T05:23:01.535Z,9.70
2022-11-13T05:25:28.319Z,9.70
2022-11-13T05:27:58.041Z,9.80
2022-11-13T05:30:25.404Z,9.80
2022-11-13T05:32:52.635Z,9.80
2022-11-13T05:35:19.407Z,9.80
2022-11-13T05:37:46.162Z,9.80
2022-11-13T05:40:13.029Z,9.80
2022-11-13T05:42:39.783Z,9.80
2022-11-13T05:45:07.018Z,9.90
2022-11-13T05:47:33.817Z,9.90
2022-11-13T05:50:00.588Z,9.80
2022-11-13T05:52:27.416Z,9.90
2022-11-13T05:54:54.180Z,9.90
2022-11-13T05:57:20.985Z,9.80
2022-11-13T05:59:47.714Z,9.80
2022-11-13T06:02:14.523Z,9.80
2022-11-13T06:04:41.348Z,9.80
2022-11-13T06:07:08.177Z,9.90
2022-11-13T06:09:34.963Z,10.00
2022-11-13T06:12:01.798Z,9.90
2022-11-13T06:14:28.545Z,9.90
2022-11-13T06:16:55.343Z,9.90
2022-11-13T06:19:22.177Z,10.00
2022-11-13T06:21:48.928Z,10.00
2022-11-13T06:24:15.689Z,9.90
2022-11-13T06:26:42.540Z,10.10
2022-11-13T06:29:12.167Z,10.10
2022-11-13T06:31:38.906Z,10.10
2022-11-13T06:34:06.094Z,10.10
2022-11-13T06:36:35.899Z,10.10
2022-11-13T06:39:06.260Z,10.20
2022-11-13T06:41:33.151Z,10.10
2022-11-13T06:44:03.038Z,10.20
2022-11-13T06:46:31.480Z,10.30
2022-11-13T06:48:58.756Z,10.30
2022-11-13T06:51:28.125Z,10.30
2022-11-13T06:53:55.193Z,10.30
2022-11-13T06:56:22.699Z,10.40
2022-11-13T06:58:49.749Z,10.40
2022-11-13T07:01:20.125Z,10.30
2022-11-13T07:03:47.522Z,10.40
2022-11-13T07:06:20.447Z,10.40
2022-11-13T07:08:47.688Z,10.40
2022-11-13T07:11:20.109Z,10.40
2022-11-13T07:13:47.307Z,10.50
2022-11-13T07:16:17.994Z,10.50
2022-11-13T07:18:51.409Z,10.50
2022-11-13T07:21:18.416Z,10.50
2022-11-13T07:23:48.618Z,10.50
2022-11-13T07:26:15.725Z,10.60
2022-11-13T07:28:42.868Z,10.60
2022-11-13T07:31:12.101Z,10.60
2022-11-13T07:33:39.184Z,10.60
2022-11-13T07:36:06.569Z,10.70
2022-11-13T07:38:33.415Z,10.70
2022-11-13T07:41:00.768Z,10.80
2022-11-13T07:43:27.571Z,10.90
2022-11-13T07:45:55.464Z,10.80
2022-11-13T07:48:23.095Z,10.80
2022-11-13T07:50:51.020Z,10.80
2022-11-13T07:53:18.845Z,10.80
2022-11-13T07:55:45.688Z,10.90
2022-11-13T07:58:12.865Z,10.90
2022-11-13T08:00:40.036Z,11.00
2022-11-13T08:03:08.675Z,11.00
2022-11-13T08:05:35.978Z,10.90
2022-11-13T08:08:03.886Z,10.90
2022-11-13T08:10:31.027Z,10.90
2022-11-13T08:13:00.238Z,11.00
2022-11-13T08:15:27.670Z,11.00
2022-11-13T08:17:58.811Z,11.00
2022-11-13T08:20:27.524Z,11.10
2022-11-13T08:22:57.685Z,11.00
2022-11-13T08:25:24.640Z,11.00
2022-11-13T08:27:53.959Z,11.00
2022-11-13T08:30:21.937Z,11.10
2022-11-13T08:32:48.894Z,11.10
2022-11-13T08:35:19.128Z,11.20
2022-11-13T08:37:46.186Z,11.30
2022-11-13T08:40:13.222Z,11.20
2022-11-13T08:42:39.984Z,11.20
2022-11-13T08:45:07.502Z,11.30
2022-11-13T08:47:34.285Z,11.50
2022-11-13T08:50:01.717Z,11.50
2022-11-13T08:52:28.620Z,11.60
2022-11-13T08:54:55.817Z,11.70
2022-11-13T08:57:22.751Z,11.70
2022-11-13T08:59:49.634Z,11.80
2022-11-13T09:02:16.789Z,11.70
2022-11-13T09:04:43.571Z,11.80
2022-11-13T09:07:11.564Z,11.80
2022-11-13T09:09:38.479Z,11.70
2022-11-13T09:12:05.774Z,11.80
2022-11-13T09:14:32.582Z,11.90
2022-11-13T09:16:59.444Z,12.00
2022-11-13T09:19:27.013Z,12.10
2022-11-13T09:21:54.123Z,12.00
2022-11-13T09:24:21.124Z,12.20
2022-11-13T09:26:47.944Z,12.30
2022-11-13T09:29:14.703Z,12.30
2022-11-13T09:31:41.573Z,12.40
2022-11-13T09:34:09.112Z,12.50
2022-11-13T09:36:36.861Z,12.50
2022-11-13T09:39:05.011Z,12.60
2022-11-13T09:41:39.934Z,12.80
2022-11-13T09:44:17.320Z,12.80
2022-11-13T09:46:49.539Z,12.80
2022-11-13T09:49:18.057Z,12.60
2022-11-13T09:51:56.704Z,12.70
2022-11-13T09:54:23.780Z,12.70
2022-11-13T09:56:59.490Z,12.80
2022-11-13T09:59:37.160Z,13.00
2022-11-13T10:02:41.481Z,13.20
2022-11-13T10:05:23.305Z,13.30
2022-11-13T10:08:07.947Z,13.40
2022-11-13T10:10:41.515Z,13.50
2022-11-13T10:13:14.182Z,13.40
2022-11-13T10:15:44.383Z,13.40
2022-11-13T10:18:22.147Z,13.60
2022-11-13T10:21:01.148Z,13.70
2022-11-13T10:23:37.824Z,13.80
2022-11-13T10:26:15.346Z,13.70
2022-11-13T10:28:50.870Z,13.90
2022-11-13T10:31:18.086Z,14.00
2022-11-13T10:33:44.859Z,14.30
2022-11-13T10:36:28.754Z,14.50
2022-11-13T10:39:05.016Z,14.80
2022-11-13T10:41:31.949Z,14.90
2022-11-13T10:44:07.758Z,14.90
2022-11-13T10:46:34.608Z,14.70
2022-11-13T10:49:14.039Z,14.30
2022-11-13T10:51:41.527Z,14.30
2022-11-13T10:54:40.570Z,14.30
2022-11-13T10:57:30.915Z,14.10
2022-11-13T10:59:57.727Z,14.40
2022-11-13T11:02:26.766Z,14.70
2022-11-13T11:05:16.091Z,14.90
2022-11-13T11:07:43.010Z,14.90
2022-11-13T11:10:59.443Z,15.30
2022-11-13T11:13:27.886Z,15.40
2022-11-13T11:15:59.431Z,15.50
2022-11-13T11:18:38.994Z,15.70
2022-11-13T11:21:11.270Z,15.60
2022-11-13T11:23:55.572Z,15.30
2022-11-13T11:26:42.122Z,15.40
2022-11-13T11:29:26.971Z,15.70
2022-11-13T11:32:11.253Z,15.50
2022-11-13T11:34:45.962Z,15.30
2022-11-13T11:37:18.956Z,15.30
2022-11-13T11:39:57.880Z,15.30
2022-11-13T11:42:39.033Z,15.30
2022-11-13T11:45:24.052Z,15.20
2022-11-13T11:47:51.308Z,15.00
2022-11-13T11:50:30.353Z,14.90
2022-11-13T11:53:01.011Z,14.90
2022-11-13T11:55:50.839Z,15.00
2022-11-13T11:58:45.649Z,14.90
2022-11-13T12:01:44.327Z,14.80
2022-11-13T12:04:41.674Z,14.70
2022-11-13T12:07:30.025Z,14.90
2022-11-13T12:10:22.527Z,14.70
2022-11-13T12:13:00.795Z,14.30
2022-11-13T12:15:50.200Z,14.10
2022-11-13T12:18:42.833Z,13.90
2022-11-13T12:21:27.674Z,13.60
2022-11-13T12:23:54.385Z,13.60
2022-11-13T12:26:27.688Z,13.60
2022-11-13T12:29:00.945Z,13.60
2022-11-13T12:32:05.096Z,13.80
2022-11-13T12:34:46.052Z,14.00
2022-11-13T12:37:22.357Z,14.10
2022-11-13T12:40:00.308Z,14.10
2022-11-13T12:42:56.667Z,14.00
2022-11-13T12:45:30.929Z,14.30
2022-11-13T12:48:10.441Z,14.60
2022-11-13T12:50:37.250Z,14.80
2022-11-13T12:53:06.647Z,14.60
2022-11-13T12:55:36.559Z,14.40
2022-11-13T12:58:10.631Z,14.10
2022-11-13T13:00:51.669Z,13.80
2022-11-13T13:03:37.140Z,13.70
2022-11-13T13:06:41.037Z,13.50
2022-11-13T13:09:25.663Z,13.50
2022-11-13T13:12:11.112Z,13.40
2022-11-13T13:15:03.034Z,13.30
2022-11-13T13:17:29.901Z,13.30
2022-11-13T13:20:01.921Z,13.10
2022-11-13T13:22:35.042Z,13.10
2022-11-13T13:25:22.037Z,12.90
2022-11-13T13:27:58.486Z,12.80
2022-11-13T13:30:26.531Z,12.70
2022-11-13T13:33:21.373Z,12.70
2022-11-13T13:36:15.756Z,12.70
2022-11-13T13:38:57.554Z,12.60
2022-11-13T13:41:30.395Z,12.50
2022-11-13T13:44:10.898Z,12.40
2022-11-13T13:46:37.902Z,12.50
2022-11-13T13:49:17.329Z,12.40
2022-11-13T13:51:48.024Z,12.30
2022-11-13T13:54:22.325Z,12.10
2022-11-13T13:56:49.637Z,12.10
2022-11-13T13:59:32.905Z,12.10
2022-11-13T14:02:04.202Z,12.00
2022-11-13T14:04:42.452Z,11.90
2022-11-13T14:07:29.345Z,11.90
2022-11-13T14:10:06.845Z,11.70
2022-11-13T14:12:33.751Z,11.60
2022-11-13T14:15:00.530Z,11.40
2022-11-13T14:17:29.143Z,11.30
2022-11-13T14:20:00.656Z,11.30
2022-11-13T14:22:28.324Z,11.20
2022-11-13T14:24:58.709Z,11.10
2022-11-13T14:27:27.442Z,11.00
2022-11-13T14:29:57.946Z,11.00
2022-11-13T14:32:33.833Z,10.90
2022-11-13T14:35:01.958Z,10.90
2022-11-13T14:37:37.615Z,10.90
2022-11-13T14:40:25.857Z,10.80
2022-11-13T14:42:59.691Z,10.70
2022-11-13T14:45:31.829Z,10.70
2022-11-13T14:48:22.380Z,10.60
2022-11-13T14:51:00.830Z,10.60
2022-11-13T14:53:30.027Z,10.60
2022-11-13T14:56:04.642Z,10.60
2022-11-13T14:58:38.838Z,10.60
2022-11-13T15:01:20.690Z,10.50
2022-11-13T15:03:49.276Z,10.50
2022-11-13T15:06:24.388Z,10.50
2022-11-13T15:08:55.761Z,10.40
2022-11-13T15:11:25.234Z,10.40
2022-11-13T15:13:52.034Z,10.40
2022-11-13T15:16:28.446Z,10.40
2022-11-13T15:19:02.536Z,10.30
2022-11-13T15:21:30.172Z,10.30
2022-11-13T15:23:57.541Z,10.30
2022-11-13T15:26:24.596Z,10.30
2022-11-13T15:28:51.417Z,10.30
2022-11-13T15:31:22.112Z,10.30
2022-11-13T15:33:49.094Z,10.30
2022-11-13T15:36:15.902Z,10.20
2022-11-13T15:38:43.131Z,10.20
2022-11-13T15:41:19.741Z,10.10
2022-11-13T15:43:49.467Z,10.10
2022-11-13T15:46:18.178Z,10.20
2022-11-13T15:48:46.380Z,10.10
2022-11-13T15:51:34.966Z,10.10
2022-11-13T15:54:15.438Z,10.10
2022-11-13T15:56:42.840Z,10.00
2022-11-13T15:59:14.328Z,9.90
2022-11-13T16:01:41.849Z,10.00
2022-11-13T16:04:10.785Z,9.90
2022-11-13T16:06:37.822Z,9.80
2022-11-13T16:09:05.268Z,9.90
2022-11-13T16:11:34.203Z,9.80
2022-11-13T16:14:01.035Z,9.90
2022-11-13T16:16:36.391Z,9.90
2022-11-13T16:19:04.192Z,9.80
2022-11-13T16:21:31.137Z,9.90
2022-11-13T16:23:58.074Z,9.80
2022-11-13T16:26:26.245Z,9.80
2022-11-13T16:31:41.665Z,9.80
2022-11-13T16:34:08.409Z,9.80
2022-11-13T16:36:35.184Z,9.70
2022-11-13T16:39:02.185Z,9.70
2022-11-13T16:41:31.477Z,9.70
2022-11-13T16:43:58.523Z,9.60
2022-11-13T16:46:30.242Z,9.60
2022-11-13T16:48:57.124Z,9.60
2022-11-13T16:51:24.088Z,9.60
2022-11-13T16:53:50.875Z,9.50
2022-11-13T16:56:28.037Z,9.60
2022-11-13T16:58:58.765Z,9.60
2022-11-13T17:01:26.588Z,9.70
2022-11-13T17:03:53.506Z,9.60
2022-11-13T17:06:38.393Z,9.60
2022-11-13T17:09:05.231Z,9.50
2022-11-13T17:11:33.064Z,9.50
2022-11-13T17:14:01.387Z,9.40
2022-11-13T17:16:30.015Z,9.40
2022-11-13T17:18:57.627Z,9.40
2022-11-13T17:21:27.452Z,9.40
2022-11-13T17:23:58.563Z,9.50
2022-11-13T17:26:26.052Z,9.40
2022-11-13T17:28:52.891Z,9.30
2022-11-13T17:31:20.349Z,9.30
2022-11-13T17:33:47.507Z,9.30
2022-11-13T17:36:14.306Z,9.30
2022-11-13T17:38:41.360Z,9.40
2022-11-13T17:41:10.378Z,9.40
2022-11-13T17:43:38.681Z,9.30
2022-11-13T17:46:07.014Z,9.30
2022-11-13T17:48:34.545Z,9.30
2022-11-13T17:51:03.316Z,9.20
2022-11-13T17:53:31.268Z,9.20
2022-11-13T17:56:00.244Z,9.20
2022-11-13T17:58:28.392Z,9.10
2022-11-13T18:01:07.119Z,9.00
2022-11-13T18:03:34.249Z,9.10
2022-11-13T18:06:09.664Z,9.10
2022-11-13T18:08:39.386Z,9.00
2022-11-13T18:11:11.627Z,9.00
2022-11-13T18:13:38.720Z,9.00
2022-11-13T18:16:11.496Z,9.00
2022-11-13T18:18:38.358Z,8.90
2022-11-13T18:21:24.871Z,8.90
2022-11-13T18:24:12.724Z,9.00
2022-11-13T18:26:39.907Z,9.00
2022-11-13T18:29:07.416Z,8.90
2022-11-13T18:31:34.188Z,8.90
2022-11-13T18:34:02.823Z,8.80
2022-11-13T18:36:31.611Z,8.90
2022-11-13T18:38:59.340Z,8.90
2022-11-13T18:41:26.123Z,8.90
2022-11-13T18:43:53.039Z,8.80
2022-11-13T18:46:21.335Z,8.90
2022-11-13T18:48:49.007Z,8.90
2022-11-13T18:51:18.937Z,9.00
2022-11-13T18:53:48.380Z,9.00
2022-11-13T18:56:23.639Z,8.90
2022-11-13T18:58:52.191Z,9.00
2022-11-13T19:01:25.088Z,9.00
2022-11-13T19:04:22.379Z,9.00
2022-11-13T19:06:40.221Z,9.00
2022-11-13T19:09:11.167Z,9.10
2022-11-13T19:11:37.930Z,9.00
2022-11-13T19:14:05.001Z,9.20
2022-11-13T19:16:37.783Z,9.10
2022-11-13T19:19:08.072Z,9.10
2022-11-13T19:21:36.135Z,9.20
2022-11-13T19:24:03.479Z,9.10
2022-11-13T19:26:30.627Z,9.00
2022-11-13T19:28:57.483Z,9.00
2022-11-13T19:31:26.168Z,9.00
2022-11-13T19:34:00.542Z,9.00
2022-11-13T19:36:29.374Z,9.10
2022-11-13T19:38:57.040Z,9.10
2022-11-13T19:41:26.629Z,9.10
2022-11-13T19:43:53.898Z,9.10
2022-11-13T19:46:21.326Z,9.00
2022-11-13T19:48:49.590Z,9.00
2022-11-13T19:51:22.725Z,9.00
2022-11-13T19:53:54.463Z,9.00
2022-11-13T19:56:22.489Z,9.00
2022-11-13T19:58:50.757Z,9.00
2022-11-13T20:01:20.581Z,9.00
2022-11-13T20:03:47.832Z,9.10
2022-11-13T20:06:16.786Z,9.10
2022-11-13T20:08:43.880Z,9.10
2022-11-13T20:11:14.317Z,9.00
2022-11-13T20:13:42.344Z,9.00
2022-11-13T20:16:11.861Z,9.00
2022-11-13T20:18:39.549Z,8.90
2022-11-13T20:21:06.606Z,8.90
2022-11-13T20:23:35.390Z,8.80
2022-11-13T20:26:05.112Z,9.00
2022-11-13T20:28:32.188Z,9.00
2022-11-13T20:31:20.432Z,9.00
2022-11-13T20:33:48.546Z,9.00
2022-11-13T20:36:16.717Z,9.00
2022-11-13T20:38:48.225Z,8.90
2022-11-13T20:41:15.369Z,8.90
2022-11-13T20:43:42.456Z,9.00
2022-11-13T20:46:11.795Z,9.10
2022-11-13T20:48:38.812Z,9.00
2022-11-13T20:51:14.262Z,8.90
2022-11-13T20:53:41.867Z,8.90
2022-11-13T20:56:09.314Z,8.90
2022-11-13T20:58:36.516Z,8.90
2022-11-13T21:01:10.599Z,8.90
2022-11-13T21:03:41.412Z,8.90
2022-11-13T21:06:10.258Z,8.80
2022-11-13T21:08:37.322Z,8.70
2022-11-13T21:11:06.177Z,8.70
2022-11-13T21:13:33.762Z,8.70
2022-11-13T21:16:08.612Z,8.80
2022-11-13T21:18:35.983Z,8.70
2022-11-13T21:21:08.212Z,8.80
2022-11-13T21:23:35.336Z,8.80
2022-11-13T21:26:03.666Z,8.70
2022-11-13T21:28:33.954Z,8.60
2022-11-13T21:31:06.291Z,8.70
2022-11-13T21:33:40.378Z,8.70
2022-11-13T21:36:19.622Z,8.70
2022-11-13T21:38:46.512Z,8.70
2022-11-13T21:41:24.909Z,8.70
2022-11-13T21:44:04.615Z,8.60
2022-11-13T21:46:34.459Z,8.60
2022-11-13T21:49:04.315Z,8.60
2022-11-13T21:51:32.901Z,8.60
2022-11-13T21:54:00.370Z,8.60
2022-11-13T21:56:28.455Z,8.60
2022-11-13T21:58:55.969Z,8.60
2022-11-13T22:01:24.015Z,8.60
2022-11-13T22:03:51.003Z,8.50
2022-11-13T22:06:23.751Z,8.50
2022-11-13T22:08:55.884Z,8.60
2022-11-13T22:11:24.553Z,8.60
2022-11-13T22:13:51.785Z,8.60
2022-11-13T22:16:18.864Z,8.60
2022-11-13T22:18:45.943Z,8.60
2022-11-13T22:21:14.421Z,8.60
2022-11-13T22:23:41.588Z,8.60
2022-11-13T22:26:13.492Z,8.60
2022-11-13T22:28:42.118Z,8.60
2022-11-13T22:31:14.300Z,8.60
2022-11-13T22:33:47.493Z,8.60
2022-11-13T22:36:36.349Z,8.60
2022-11-13T22:39:03.880Z,8.70
2022-11-13T22:41:33.344Z,8.60
2022-11-13T22:44:02.757Z,8.60
2022-11-13T22:46:31.692Z,8.60
2022-11-13T22:49:01.721Z,8.60
2022-11-13T22:51:31.079Z,8.60
2022-11-13T22:54:03.714Z,8.60
2022-11-13T22:56:32.082Z,8.50
2022-11-13T22:59:00.843Z,8.50
2022-11-13T23:01:30.152Z,8.40
2022-11-13T23:03:58.211Z,8.40
2022-11-13T23:06:27.210Z,8.50
2022-11-13T23:08:54.568Z,8.40
2022-11-13T23:11:28.514Z,8.50
2022-11-13T23:13:58.000Z,8.40
2022-11-13T23:16:26.662Z,8.40
2022-11-13T23:18:55.670Z,8.30
2022-11-13T23:21:22.912Z,8.30
2022-11-13T23:23:49.681Z,8.30
2022-11-13T23:26:16.870Z,8.30
2022-11-13T23:28:44.006Z,8.30
2022-11-13T23:31:11.066Z,8.20
2022-11-13T23:33:38.774Z,8.20
2022-11-13T23:36:07.380Z,8.20
2022-11-13T23:38:34.424Z,8.10
2022-11-13T23:41:01.859Z,8.10
2022-11-13T23:44:01.734Z,8.00
2022-11-13T23:46:16.720Z,8.00
2022-11-13T23:48:43.758Z,8.10
2022-11-13T23:51:10.467Z,8.00
2022-11-13T23:53:37.279Z,8.10
2022-11-13T23:56:04.420Z,8.00
2022-11-13T23:58:32.675Z,8.00
